Thunderstorms From: 21-05-2018 15:00 Until: 22-05-2018 15:00 warning for: Thunderstorms Level: Yellow info button

Although rather usual in this region, locally or potentially dangerous phenomena are expected. (such as local winds, summer thunderstorms, rising streams or high waves) Be aware and pay attention to the latest weather updates, especially if you carry out activities exposed to weather or close to a stream or shoreline. 


Meteo18 Weather Cam more information Meteo18 Weather Cam


warning for Thunderstorms more information blitzortung!


Rain radar more information rain snow radar


Visit our other weather sites:

Template documentation
and downloads

And another site



Weather Underground History page Text

Daily Summary for January 20, 2018 Units:  Both    English   Metric
« Previous Day
Next Day »
Daily Weekly Monthly Yearly Custom
  High: Low: Average:
Temperature: TemperatureC °F /  -17.8 °C 2.1 °F /  -16.6 °C 7.1 °F /  -13.8 °C
Dew Point: DewpointC °F /  -17.8 °C 1.1 °F /  -17.2 °C 6 °F /  -14.4 °C
Humidity: Humidity % 83 % 92 %
Wind Speed: WindSpeedKMH mph /  0 km/h - 14.6 mph /  23.5 km/h
Wind Gust: WindSpeedGustKMH mph /  0 km/h - -
Wind:- - WSW
Pressure: PressurehPa in /  0 hPa 1002.3 in /  33937.9 hPa -
Precipitation: 19.6 in /  497.84 mm    
Historical Graphs
 
 
Tabular Data for January 20, 2018
Time Temperature Dew Point Pressure Wind Wind Speed Wind Gust Humidity Rainfall Rate (Hourly)
TemperatureC °F /  -17.8 °C DewpointC °F /  -17.8 °C PressurehPa in /  0 hPa Calm     Humidity % HourlyPrecipMM in /  0 mm
00:00 2.9 °F /  -16.2 °C 1.4 °F /  -17 °C 1018.2 in /  34476.3 hPa West 4.7 mph /  7.6 km/h 12.9 mph /  20.8 km/h 90 % 0.0 in /  0 mm
00:06 2.8 °F /  -16.2 °C 1.3 °F /  -17.1 °C 1018.2 in /  34476.3 hPa SW 7.9 mph /  12.7 km/h 11.3 mph /  18.2 km/h 90 % 0.0 in /  0 mm
00:12 2.7 °F /  -16.3 °C 1.2 °F /  -17.1 °C 1018.2 in /  34476.3 hPa WSW 11.1 mph /  17.9 km/h 12.9 mph /  20.8 km/h 90 % 0.0 in /  0 mm
00:18 2.7 °F /  -16.3 °C 1.4 °F /  -17 °C 1018.2 in /  34476.3 hPa SW 3.2 mph /  5.1 km/h 9.7 mph /  15.6 km/h 91 % 0.0 in /  0 mm
00:24 2.6 °F /  -16.3 °C 1.3 °F /  -17.1 °C 1018.2 in /  34476.3 hPa SW 11.1 mph /  17.9 km/h 12.9 mph /  20.8 km/h 91 % 0.0 in /  0 mm
00:30 2.6 °F /  -16.3 °C 1.3 °F /  -17.1 °C 1018.2 in /  34476.3 hPa WSW 6.4 mph /  10.3 km/h 11.3 mph /  18.2 km/h 91 % 0.0 in /  0 mm
00:36 2.6 °F /  -16.3 °C 1.3 °F /  -17.1 °C 1018.2 in /  34476.3 hPa WSW 13.0 mph /  20.9 km/h 16.1 mph /  25.9 km/h 91 % 0.0 in /  0 mm
00:42 2.6 °F /  -16.3 °C 1.3 °F /  -17.1 °C 1018.2 in /  34476.3 hPa WSW 11.1 mph /  17.9 km/h 14.5 mph /  23.3 km/h 91 % 0.0 in /  0 mm
00:48 2.7 °F /  -16.3 °C 1.4 °F /  -17 °C 1018.2 in /  34476.3 hPa WSW 7.9 mph /  12.7 km/h 16.1 mph /  25.9 km/h 91 % 0.0 in /  0 mm
00:54 2.7 °F /  -16.3 °C 1.4 °F /  -17 °C 1018.2 in /  34476.3 hPa West 13.0 mph /  20.9 km/h 17.7 mph /  28.5 km/h 91 % 0.0 in /  0 mm
01:00 2.7 °F /  -16.3 °C 1.4 °F /  -17 °C 1018.2 in /  34476.3 hPa WSW 11.1 mph /  17.9 km/h 16.1 mph /  25.9 km/h 91 % 0.0 in /  0 mm
01:06 2.7 °F /  -16.3 °C 1.4 °F /  -17 °C 1017.8 in /  34462.7 hPa SW 11.1 mph /  17.9 km/h 11.3 mph /  18.2 km/h 91 % 0.0 in /  0 mm
01:12 2.6 °F /  -16.3 °C 1.3 °F /  -17.1 °C 1017.8 in /  34462.7 hPa WSW 6.4 mph /  10.3 km/h 12.9 mph /  20.8 km/h 91 % 0.0 in /  0 mm
01:18 2.5 °F /  -16.4 °C 1.3 °F /  -17.1 °C 1017.8 in /  34462.7 hPa WSW 1.4 mph /  2.3 km/h 12.9 mph /  20.8 km/h 92 % 0.0 in /  0 mm
01:24 2.5 °F /  -16.4 °C 1.3 °F /  -17.1 °C 1017.8 in /  34462.7 hPa WSW 7.9 mph /  12.7 km/h 11.3 mph /  18.2 km/h 92 % 0.0 in /  0 mm
01:30 2.4 °F /  -16.4 °C 1.2 °F /  -17.1 °C 1017.8 in /  34462.7 hPa SW 4.7 mph /  7.6 km/h 9.7 mph /  15.6 km/h 92 % 0.0 in /  0 mm
01:36 2.4 °F /  -16.4 °C 1.2 °F /  -17.1 °C 1017.8 in /  34462.7 hPa SSE 1.4 mph /  2.3 km/h 12.9 mph /  20.8 km/h 92 % 0.0 in /  0 mm
01:42 2.4 °F /  -16.4 °C 1.2 °F /  -17.1 °C 1017.8 in /  34462.7 hPa SW 9.7 mph /  15.6 km/h 14.5 mph /  23.3 km/h 92 % 0.0 in /  0 mm
01:48 2.3 °F /  -16.5 °C 1.1 °F /  -17.2 °C 1017.8 in /  34462.7 hPa SSW 3.2 mph /  5.1 km/h 12.9 mph /  20.8 km/h 92 % 0.0 in /  0 mm
01:54 2.3 °F /  -16.5 °C 1.1 °F /  -17.2 °C 1017.5 in /  34452.6 hPa SW 4.7 mph /  7.6 km/h 9.7 mph /  15.6 km/h 92 % 0.0 in /  0 mm
02:00 2.2 °F /  -16.6 °C 1.2 °F /  -17.1 °C 1017.5 in /  34452.6 hPa SW 9.7 mph /  15.6 km/h 12.9 mph /  20.8 km/h 93 % 0.0 in /  0 mm
02:06 2.1 °F /  -16.6 °C 1.1 °F /  -17.2 °C 1017.5 in /  34452.6 hPa WSW 4.7 mph /  7.6 km/h 11.3 mph /  18.2 km/h 93 % 0.0 in /  0 mm
02:12 2.1 °F /  -16.6 °C 1.1 °F /  -17.2 °C 1017.5 in /  34452.6 hPa SW 6.4 mph /  10.3 km/h 9.7 mph /  15.6 km/h 93 % 0.0 in /  0 mm
02:18 2.1 °F /  -16.6 °C 1.2 °F /  -17.1 °C 1017.5 in /  34452.6 hPa SSW 3.2 mph /  5.1 km/h 14.5 mph /  23.3 km/h 94 % 0.0 in /  0 mm
02:24 2.1 °F /  -16.6 °C 1.1 °F /  -17.2 °C 1017.5 in /  34452.6 hPa SW 3.2 mph /  5.1 km/h 8.0 mph /  12.9 km/h 93 % 0.0 in /  0 mm
02:30 2.2 °F /  -16.6 °C 1.3 °F /  -17.1 °C 1017.5 in /  34452.6 hPa SSW 6.4 mph /  10.3 km/h 9.7 mph /  15.6 km/h 94 % 0.0 in /  0 mm
02:36 2.2 °F /  -16.6 °C 1.3 °F /  -17.1 °C 1017.5 in /  34452.6 hPa SW 4.7 mph /  7.6 km/h 6.4 mph /  10.3 km/h 94 % 0.0 in /  0 mm
02:42 2.3 °F /  -16.5 °C 1.4 °F /  -17 °C 1017.2 in /  34442.4 hPa WSW 6.4 mph /  10.3 km/h 11.3 mph /  18.2 km/h 94 % 0.0 in /  0 mm
02:48 2.3 °F /  -16.5 °C 1.4 °F /  -17 °C 1017.2 in /  34442.4 hPa SW 9.7 mph /  15.6 km/h 9.7 mph /  15.6 km/h 94 % 0.0 in /  0 mm
02:54 2.3 °F /  -16.5 °C 1.4 °F /  -17 °C 1017.2 in /  34442.4 hPa SW 4.7 mph /  7.6 km/h 11.3 mph /  18.2 km/h 94 % 0.0 in /  0 mm
03:00 2.4 °F /  -16.4 °C 1.5 °F /  -16.9 °C 1017.2 in /  34442.4 hPa South 4.7 mph /  7.6 km/h 11.3 mph /  18.2 km/h 94 % 0.0 in /  0 mm
03:06 2.4 °F /  -16.4 °C 1.5 °F /  -16.9 °C 1017.2 in /  34442.4 hPa SW 4.7 mph /  7.6 km/h 9.7 mph /  15.6 km/h 94 % 0.0 in /  0 mm
03:12 2.4 °F /  -16.4 °C 1.5 °F /  -16.9 °C 1017.2 in /  34442.4 hPa WSW 13.0 mph /  20.9 km/h 13.0 mph /  20.9 km/h 94 % 0.0 in /  0 mm
03:18 2.5 °F /  -16.4 °C 1.6 °F /  -16.9 °C 1017.2 in /  34442.4 hPa SSW 3.2 mph /  5.1 km/h 16.1 mph /  25.9 km/h 94 % 0.0 in /  0 mm
03:24 2.6 °F /  -16.3 °C 1.7 °F /  -16.8 °C 1017.2 in /  34442.4 hPa Calm   8.0 mph /  12.9 km/h 94 % 0.0 in /  0 mm
03:30 2.4 °F /  -16.4 °C 1.4 °F /  -17 °C 1017.2 in /  34442.4 hPa SSW 4.7 mph /  7.6 km/h 8.0 mph /  12.9 km/h 93 % 0.0 in /  0 mm
03:36 2.4 °F /  -16.4 °C 1.5 °F /  -16.9 °C 1017.2 in /  34442.4 hPa SSW 6.4 mph /  10.3 km/h 9.7 mph /  15.6 km/h 94 % 0.0 in /  0 mm
03:42 2.4 °F /  -16.4 °C 1.5 °F /  -16.9 °C 1017.2 in /  34442.4 hPa SSW 4.7 mph /  7.6 km/h 9.7 mph /  15.6 km/h 94 % 0.0 in /  0 mm
03:48 2.4 °F /  -16.4 °C 1.5 °F /  -16.9 °C 1017.2 in /  34442.4 hPa SW 3.2 mph /  5.1 km/h 6.4 mph /  10.3 km/h 94 % 0.0 in /  0 mm
03:54 2.4 °F /  -16.4 °C 1.5 °F /  -16.9 °C 1016.8 in /  34428.8 hPa SSW 3.2 mph /  5.1 km/h 8.0 mph /  12.9 km/h 94 % 0.0 in /  0 mm
04:00 2.4 °F /  -16.4 °C 1.7 °F /  -16.8 °C 1016.8 in /  34428.8 hPa SSW 9.7 mph /  15.6 km/h 9.7 mph /  15.6 km/h 95 % 0.0 in /  0 mm
04:06 2.5 °F /  -16.4 °C 1.8 °F /  -16.8 °C 1016.8 in /  34428.8 hPa SSW 3.2 mph /  5.1 km/h 8.0 mph /  12.9 km/h 95 % 0.0 in /  0 mm
04:12 2.6 °F /  -16.3 °C 1.9 °F /  -16.7 °C 1016.8 in /  34428.8 hPa South 1.4 mph /  2.3 km/h 11.3 mph /  18.2 km/h 95 % 0.0 in /  0 mm
04:18 2.7 °F /  -16.3 °C 2.0 °F /  -16.7 °C 1016.5 in /  34418.7 hPa SW 6.4 mph /  10.3 km/h 11.3 mph /  18.2 km/h 95 % 0.0 in /  0 mm
04:24 2.7 °F /  -16.3 °C 2.0 °F /  -16.7 °C 1016.5 in /  34418.7 hPa SSW 6.4 mph /  10.3 km/h 11.3 mph /  18.2 km/h 95 % 0.0 in /  0 mm
04:30 2.7 °F /  -16.3 °C 2.0 °F /  -16.7 °C 1016.5 in /  34418.7 hPa WSW 9.7 mph /  15.6 km/h 14.5 mph /  23.3 km/h 95 % 0.0 in /  0 mm
04:36 2.7 °F /  -16.3 °C 2.0 °F /  -16.7 °C 1016.1 in /  34405.1 hPa SW 9.7 mph /  15.6 km/h 14.5 mph /  23.3 km/h 95 % 0.0 in /  0 mm
04:42 2.8 °F /  -16.2 °C 2.1 °F /  -16.6 °C 1016.1 in /  34405.1 hPa SSW 4.7 mph /  7.6 km/h 9.7 mph /  15.6 km/h 95 % 0.0 in /  0 mm
04:48 2.8 °F /  -16.2 °C 2.1 °F /  -16.6 °C 1016.1 in /  34405.1 hPa SW 3.2 mph /  5.1 km/h 8.0 mph /  12.9 km/h 95 % 0.3 in /  7.62 mm
04:54 2.8 °F /  -16.2 °C 2.1 °F /  -16.6 °C 1016.1 in /  34405.1 hPa SSW 3.2 mph /  5.1 km/h 14.5 mph /  23.3 km/h 95 % 0.3 in /  7.62 mm
05:00 2.8 °F /  -16.2 °C 2.1 °F /  -16.6 °C 1016.1 in /  34405.1 hPa SW 4.7 mph /  7.6 km/h 9.7 mph /  15.6 km/h 95 % 0.3 in /  7.62 mm
05:06 2.9 °F /  -16.2 °C 2.2 °F /  -16.6 °C 1015.8 in /  34395 hPa SW 7.9 mph /  12.7 km/h 16.1 mph /  25.9 km/h 95 % 0.5 in /  12.7 mm
05:12 3.0 °F /  -16.1 °C 2.4 °F /  -16.4 °C 1015.8 in /  34395 hPa SW 11.1 mph /  17.9 km/h 20.9 mph /  33.6 km/h 96 % 0.5 in /  12.7 mm
05:18 3.1 °F /  -16.1 °C 2.5 °F /  -16.4 °C 1015.5 in /  34384.8 hPa SW 16.3 mph /  26.2 km/h 16.3 mph /  26.2 km/h 96 % 0.5 in /  12.7 mm
05:24 3.1 °F /  -16.1 °C 2.5 °F /  -16.4 °C 1015.5 in /  34384.8 hPa SW 13.0 mph /  20.9 km/h 16.1 mph /  25.9 km/h 96 % 0.5 in /  12.7 mm
05:30 3.2 °F /  -16 °C 2.6 °F /  -16.3 °C 1015.5 in /  34384.8 hPa SW 11.1 mph /  17.9 km/h 14.5 mph /  23.3 km/h 96 % 0.5 in /  12.7 mm
05:36 3.2 °F /  -16 °C 2.6 °F /  -16.3 °C 1015.1 in /  34371.3 hPa SW 4.7 mph /  7.6 km/h 9.7 mph /  15.6 km/h 96 % 0.8 in /  20.32 mm
05:42 3.3 °F /  -15.9 °C 2.7 °F /  -16.3 °C 1015.1 in /  34371.3 hPa WSW 4.7 mph /  7.6 km/h 11.3 mph /  18.2 km/h 96 % 0.8 in /  20.32 mm
05:48 3.4 °F /  -15.9 °C 2.8 °F /  -16.2 °C 1015.1 in /  34371.3 hPa SW 13.0 mph /  20.9 km/h 14.5 mph /  23.3 km/h 96 % 0.8 in /  20.32 mm
05:54 3.5 °F /  -15.8 °C 2.9 °F /  -16.2 °C 1014.8 in /  34361.1 hPa SSW 9.7 mph /  15.6 km/h 17.7 mph /  28.5 km/h 96 % 1.0 in /  25.4 mm
06:00 3.6 °F /  -15.8 °C 3.0 °F /  -16.1 °C 1014.4 in /  34347.6 hPa SW 11.1 mph /  17.9 km/h 11.3 mph /  18.2 km/h 96 % 1.0 in /  25.4 mm
06:06 3.6 °F /  -15.8 °C 3.0 °F /  -16.1 °C 1014.4 in /  34347.6 hPa SW 14.3 mph /  23 km/h 14.5 mph /  23.3 km/h 96 % 1.0 in /  25.4 mm
06:12 3.6 °F /  -15.8 °C 3.0 °F /  -16.1 °C 1014.4 in /  34347.6 hPa SSW 6.4 mph /  10.3 km/h 16.1 mph /  25.9 km/h 96 % 1.0 in /  25.4 mm
06:18 3.6 °F /  -15.8 °C 3.0 °F /  -16.1 °C 1014.4 in /  34347.6 hPa SSW 9.7 mph /  15.6 km/h 16.1 mph /  25.9 km/h 96 % 1.0 in /  25.4 mm
06:24 3.6 °F /  -15.8 °C 3.0 °F /  -16.1 °C 1014.1 in /  34337.4 hPa South 13.0 mph /  20.9 km/h 17.7 mph /  28.5 km/h 96 % 1.3 in /  33.02 mm
06:30 3.6 °F /  -15.8 °C 3.0 °F /  -16.1 °C 1014.1 in /  34337.4 hPa SSW 7.9 mph /  12.7 km/h 19.3 mph /  31.1 km/h 96 % 1.3 in /  33.02 mm
06:36 3.7 °F /  -15.7 °C 3.1 °F /  -16.1 °C 1014.1 in /  34337.4 hPa SW 11.1 mph /  17.9 km/h 20.9 mph /  33.6 km/h 96 % 1.3 in /  33.02 mm
06:42 3.7 °F /  -15.7 °C 3.1 °F /  -16.1 °C 1013.8 in /  34327.3 hPa SW 13.0 mph /  20.9 km/h 19.3 mph /  31.1 km/h 96 % 1.0 in /  25.4 mm
06:48 3.9 °F /  -15.6 °C 3.3 °F /  -15.9 °C 1013.8 in /  34327.3 hPa WSW 17.7 mph /  28.5 km/h 22.5 mph /  36.2 km/h 96 % 1.0 in /  25.4 mm
06:54 4.0 °F /  -15.6 °C 3.4 °F /  -15.9 °C 1013.4 in /  34313.7 hPa SW 13.0 mph /  20.9 km/h 22.5 mph /  36.2 km/h 96 % 1.0 in /  25.4 mm
07:00 4.1 °F /  -15.5 °C 3.5 °F /  -15.8 °C 1013.4 in /  34313.7 hPa SW 14.3 mph /  23 km/h 19.3 mph /  31.1 km/h 96 % 1.3 in /  33.02 mm
07:06 4.2 °F /  -15.4 °C 3.5 °F /  -15.8 °C 1013.4 in /  34313.7 hPa SW 17.7 mph /  28.5 km/h 29.0 mph /  46.7 km/h 95 % 1.3 in /  33.02 mm
07:13 4.1 °F /  -15.5 °C 3.4 °F /  -15.9 °C 1013.1 in /  34303.6 hPa SW 16.3 mph /  26.2 km/h 20.9 mph /  33.6 km/h 95 % 1.3 in /  33.02 mm
07:19 4.2 °F /  -15.4 °C 3.5 °F /  -15.8 °C 1013.1 in /  34303.6 hPa SW 13.0 mph /  20.9 km/h 20.9 mph /  33.6 km/h 95 % 1.3 in /  33.02 mm
07:25 4.2 °F /  -15.4 °C 3.5 °F /  -15.8 °C 1012.8 in /  34293.4 hPa SW 14.3 mph /  23 km/h 25.7 mph /  41.4 km/h 95 % 1.3 in /  33.02 mm
07:31 4.3 °F /  -15.4 °C 3.6 °F /  -15.8 °C 1012.8 in /  34293.4 hPa SW 14.3 mph /  23 km/h 24.1 mph /  38.8 km/h 95 % 1.5 in /  38.1 mm
07:37 4.3 °F /  -15.4 °C 3.7 °F /  -15.7 °C 1012.8 in /  34293.4 hPa SW 13.0 mph /  20.9 km/h 29.0 mph /  46.7 km/h 96 % 1.3 in /  33.02 mm
07:43 4.3 °F /  -15.4 °C 3.7 °F /  -15.7 °C 1012.4 in /  34279.9 hPa SSW 13.0 mph /  20.9 km/h 24.1 mph /  38.8 km/h 96 % 1.5 in /  38.1 mm
07:49 4.3 °F /  -15.4 °C 3.7 °F /  -15.7 °C 1012.4 in /  34279.9 hPa South 16.3 mph /  26.2 km/h 24.1 mph /  38.8 km/h 96 % 1.3 in /  33.02 mm
07:55 4.3 °F /  -15.4 °C 3.7 °F /  -15.7 °C 1012.1 in /  34269.7 hPa SSW 14.3 mph /  23 km/h 19.3 mph /  31.1 km/h 96 % 1.5 in /  38.1 mm
08:01 4.3 °F /  -15.4 °C 3.7 °F /  -15.7 °C 1011.7 in /  34256.2 hPa South 16.3 mph /  26.2 km/h 25.7 mph /  41.4 km/h 96 % 1.3 in /  33.02 mm
08:07 4.4 °F /  -15.3 °C 3.8 °F /  -15.7 °C 1011.7 in /  34256.2 hPa SW 19.5 mph /  31.4 km/h 20.9 mph /  33.6 km/h 96 % 1.3 in /  33.02 mm
08:13 4.4 °F /  -15.3 °C 3.8 °F /  -15.7 °C 1011.4 in /  34246 hPa SSW 13.0 mph /  20.9 km/h 20.9 mph /  33.6 km/h 96 % 1.0 in /  25.4 mm
08:19 4.4 °F /  -15.3 °C 3.8 °F /  -15.7 °C 1011.1 in /  34235.8 hPa South 9.7 mph /  15.6 km/h 20.9 mph /  33.6 km/h 96 % 1.3 in /  33.02 mm
08:25 4.4 °F /  -15.3 °C 3.8 °F /  -15.7 °C 1011.1 in /  34235.8 hPa SSW 19.5 mph /  31.4 km/h 27.4 mph /  44.1 km/h 96 % 1.3 in /  33.02 mm
08:31 4.4 °F /  -15.3 °C 3.8 °F /  -15.7 °C 1011.1 in /  34235.8 hPa SSW 17.7 mph /  28.5 km/h 20.9 mph /  33.6 km/h 96 % 1.3 in /  33.02 mm
08:33 4.4 °F /  -15.3 °C 3.8 °F /  -15.7 °C 1011.1 in /  34235.8 hPa SSW 20.9 mph /  33.6 km/h 24.1 mph /  38.8 km/h 96 % 1.3 in /  33.02 mm
08:39 4.4 °F /  -15.3 °C 3.8 °F /  -15.7 °C 1010.7 in /  34222.3 hPa SSW 24.1 mph /  38.8 km/h 32.2 mph /  51.8 km/h 96 % 1.5 in /  38.1 mm
08:45 4.4 °F /  -15.3 °C 3.7 °F /  -15.7 °C 1010.7 in /  34222.3 hPa SW 16.3 mph /  26.2 km/h 22.5 mph /  36.2 km/h 95 % 1.5 in /  38.1 mm
08:51 4.5 °F /  -15.3 °C 3.8 °F /  -15.7 °C 1010.7 in /  34222.3 hPa SSW 20.9 mph /  33.6 km/h 25.7 mph /  41.4 km/h 95 % 1.5 in /  38.1 mm
08:57 4.5 °F /  -15.3 °C 3.8 °F /  -15.7 °C 1010.4 in /  34212.1 hPa SSW 22.7 mph /  36.5 km/h 32.2 mph /  51.8 km/h 95 % 1.5 in /  38.1 mm
09:03 4.5 °F /  -15.3 °C 3.8 °F /  -15.7 °C 1010.4 in /  34212.1 hPa South 27.4 mph /  44.1 km/h 30.6 mph /  49.2 km/h 95 % 1.8 in /  45.72 mm
09:09 4.6 °F /  -15.2 °C 3.9 °F /  -15.6 °C 1010.0 in /  34198.6 hPa SSW 13.0 mph /  20.9 km/h 25.7 mph /  41.4 km/h 95 % 1.8 in /  45.72 mm
09:15 4.6 °F /  -15.2 °C 3.9 °F /  -15.6 °C 1010.0 in /  34198.6 hPa South 9.7 mph /  15.6 km/h 20.9 mph /  33.6 km/h 95 % 1.8 in /  45.72 mm
09:21 4.6 °F /  -15.2 °C 3.9 °F /  -15.6 °C 1009.7 in /  34188.4 hPa SSW 13.0 mph /  20.9 km/h 22.5 mph /  36.2 km/h 95 % 2.0 in /  50.8 mm
09:27 4.6 °F /  -15.2 °C 3.9 °F /  -15.6 °C 1009.7 in /  34188.4 hPa SW 25.9 mph /  41.7 km/h 30.6 mph /  49.2 km/h 95 % 2.0 in /  50.8 mm
09:33 4.7 °F /  -15.2 °C 4.0 °F /  -15.6 °C 1009.4 in /  34178.3 hPa SSW 22.7 mph /  36.5 km/h 32.2 mph /  51.8 km/h 95 % 2.3 in /  58.42 mm
09:39 4.7 °F /  -15.2 °C 3.8 °F /  -15.7 °C 1009.0 in /  34164.7 hPa SSW 16.3 mph /  26.2 km/h 27.4 mph /  44.1 km/h 94 % 2.3 in /  58.42 mm
09:45 4.7 °F /  -15.2 °C 3.8 °F /  -15.7 °C 1009.0 in /  34164.7 hPa SSW 27.4 mph /  44.1 km/h 27.4 mph /  44.1 km/h 94 % 2.5 in /  63.5 mm
09:51 4.7 °F /  -15.2 °C 3.7 °F /  -15.7 °C 1008.7 in /  34154.6 hPa SSE 16.3 mph /  26.2 km/h 43.4 mph /  69.8 km/h 93 % 3.0 in /  76.2 mm
09:57 4.6 °F /  -15.2 °C 3.6 °F /  -15.8 °C 1008.4 in /  34144.4 hPa SSE 22.7 mph /  36.5 km/h 27.4 mph /  44.1 km/h 93 % 3.3 in /  83.82 mm
10:03 4.6 °F /  -15.2 °C 3.7 °F /  -15.7 °C 1008.0 in /  34130.9 hPa SW 27.4 mph /  44.1 km/h 30.6 mph /  49.2 km/h 94 % 3.3 in /  83.82 mm
10:09 4.6 °F /  -15.2 °C 3.6 °F /  -15.8 °C 1008.0 in /  34130.9 hPa South 16.3 mph /  26.2 km/h 24.1 mph /  38.8 km/h 93 % 3.6 in /  91.44 mm
10:15 4.6 °F /  -15.2 °C 3.6 °F /  -15.8 °C 1007.7 in /  34120.7 hPa SSW 25.9 mph /  41.7 km/h 33.8 mph /  54.4 km/h 93 % 3.6 in /  91.44 mm
10:21 4.5 °F /  -15.3 °C 3.5 °F /  -15.8 °C 1007.3 in /  34107.2 hPa SW 22.7 mph /  36.5 km/h 33.8 mph /  54.4 km/h 93 % 3.8 in /  96.52 mm
10:27 4.3 °F /  -15.4 °C 3.1 °F /  -16.1 °C 1007.3 in /  34107.2 hPa SSW 19.5 mph /  31.4 km/h 35.4 mph /  57 km/h 92 % 4.1 in /  104.14 mm
10:33 4.3 °F /  -15.4 °C 3.3 °F /  -15.9 °C 1007.0 in /  34097 hPa South 24.1 mph /  38.8 km/h 32.2 mph /  51.8 km/h 93 % 4.1 in /  104.14 mm
10:39 4.2 °F /  -15.4 °C 3.2 °F /  -16 °C 1007.0 in /  34097 hPa SSW 16.3 mph /  26.2 km/h 20.9 mph /  33.6 km/h 93 % 4.1 in /  104.14 mm
10:45 4.2 °F /  -15.4 °C 3.2 °F /  -16 °C 1006.7 in /  34086.9 hPa South 22.7 mph /  36.5 km/h 29.0 mph /  46.7 km/h 93 % 3.8 in /  96.52 mm
10:51 4.2 °F /  -15.4 °C 3.3 °F /  -15.9 °C 1006.7 in /  34086.9 hPa SSW 16.3 mph /  26.2 km/h 27.4 mph /  44.1 km/h 94 % 3.6 in /  91.44 mm
10:57 4.2 °F /  -15.4 °C 3.3 °F /  -15.9 °C 1006.3 in /  34073.3 hPa SSE 7.9 mph /  12.7 km/h 25.7 mph /  41.4 km/h 94 % 3.6 in /  91.44 mm
11:03 4.2 °F /  -15.4 °C 3.3 °F /  -15.9 °C 1006.0 in /  34063.2 hPa South 16.3 mph /  26.2 km/h 24.1 mph /  38.8 km/h 94 % 3.6 in /  91.44 mm
11:09 4.2 °F /  -15.4 °C 3.5 °F /  -15.8 °C 1006.0 in /  34063.2 hPa SSW 19.5 mph /  31.4 km/h 24.1 mph /  38.8 km/h 95 % 3.3 in /  83.82 mm
11:15 4.2 °F /  -15.4 °C 3.5 °F /  -15.8 °C 1005.6 in /  34049.6 hPa South 14.3 mph /  23 km/h 27.4 mph /  44.1 km/h 95 % 3.3 in /  83.82 mm
11:21 4.3 °F /  -15.4 °C 3.6 °F /  -15.8 °C 1005.6 in /  34049.6 hPa SW 13.0 mph /  20.9 km/h 25.7 mph /  41.4 km/h 95 % 3.3 in /  83.82 mm
11:27 4.3 °F /  -15.4 °C 3.6 °F /  -15.8 °C 1005.3 in /  34039.5 hPa SSE 6.4 mph /  10.3 km/h 25.7 mph /  41.4 km/h 95 % 3.3 in /  83.82 mm
11:33 4.4 °F /  -15.3 °C 3.7 °F /  -15.7 °C 1005.3 in /  34039.5 hPa SE 17.7 mph /  28.5 km/h 19.3 mph /  31.1 km/h 95 % 3.0 in /  76.2 mm
11:39 4.5 °F /  -15.3 °C 3.9 °F /  -15.6 °C 1005.0 in /  34029.3 hPa South 16.3 mph /  26.2 km/h 20.9 mph /  33.6 km/h 96 % 3.0 in /  76.2 mm
11:45 4.6 °F /  -15.2 °C 4.0 °F /  -15.6 °C 1005.0 in /  34029.3 hPa SW 16.3 mph /  26.2 km/h 20.9 mph /  33.6 km/h 96 % 3.0 in /  76.2 mm
11:51 4.6 °F /  -15.2 °C 4.0 °F /  -15.6 °C 1004.6 in /  34015.8 hPa SSW 7.9 mph /  12.7 km/h 19.3 mph /  31.1 km/h 96 % 2.8 in /  71.12 mm
11:57 4.8 °F /  -15.1 °C 4.2 °F /  -15.4 °C 1004.6 in /  34015.8 hPa SW 14.3 mph /  23 km/h 20.9 mph /  33.6 km/h 96 % 2.5 in /  63.5 mm
12:03 4.9 °F /  -15.1 °C 4.3 °F /  -15.4 °C 1004.3 in /  34005.6 hPa South 11.1 mph /  17.9 km/h 16.1 mph /  25.9 km/h 96 % 2.3 in /  58.42 mm
12:09 4.9 °F /  -15.1 °C 4.3 °F /  -15.4 °C 1004.3 in /  34005.6 hPa SSW 17.7 mph /  28.5 km/h 27.4 mph /  44.1 km/h 96 % 2.0 in /  50.8 mm
12:15 5.1 °F /  -14.9 °C 4.5 °F /  -15.3 °C 1003.9 in /  33992.1 hPa SSW 17.7 mph /  28.5 km/h 20.9 mph /  33.6 km/h 96 % 2.0 in /  50.8 mm
12:21 5.2 °F /  -14.9 °C 4.8 °F /  -15.1 °C 1003.9 in /  33992.1 hPa SSW 14.3 mph /  23 km/h 25.7 mph /  41.4 km/h 97 % 1.5 in /  38.1 mm
12:27 5.3 °F /  -14.8 °C 4.9 °F /  -15.1 °C 1003.9 in /  33992.1 hPa SSW 9.7 mph /  15.6 km/h 20.9 mph /  33.6 km/h 97 % 1.5 in /  38.1 mm
12:33 5.5 °F /  -14.7 °C 5.1 °F /  -14.9 °C 1003.6 in /  33981.9 hPa SSW 13.0 mph /  20.9 km/h 22.5 mph /  36.2 km/h 97 % 1.5 in /  38.1 mm
12:39 5.6 °F /  -14.7 °C 5.2 °F /  -14.9 °C 1003.6 in /  33981.9 hPa SSW 9.7 mph /  15.6 km/h 19.3 mph /  31.1 km/h 97 % 1.3 in /  33.02 mm
12:45 5.7 °F /  -14.6 °C 5.3 °F /  -14.8 °C 1003.3 in /  33971.7 hPa SSW 11.1 mph /  17.9 km/h 17.7 mph /  28.5 km/h 97 % 1.0 in /  25.4 mm
12:51 6.0 °F /  -14.4 °C 5.6 °F /  -14.7 °C 1003.3 in /  33971.7 hPa SSW 13.0 mph /  20.9 km/h 19.3 mph /  31.1 km/h 97 % 0.8 in /  20.32 mm
12:57 6.1 °F /  -14.4 °C 5.7 °F /  -14.6 °C 1003.3 in /  33971.7 hPa SW 6.4 mph /  10.3 km/h 17.7 mph /  28.5 km/h 97 % 0.8 in /  20.32 mm
13:03 6.3 °F /  -14.3 °C 5.9 °F /  -14.5 °C 1002.9 in /  33958.2 hPa South 11.1 mph /  17.9 km/h 16.1 mph /  25.9 km/h 97 % 0.8 in /  20.32 mm
13:09 6.4 °F /  -14.2 °C 6.0 °F /  -14.4 °C 1003.3 in /  33971.7 hPa SW 3.2 mph /  5.1 km/h 8.0 mph /  12.9 km/h 97 % 0.8 in /  20.32 mm
13:15 6.9 °F /  -13.9 °C 6.6 °F /  -14.1 °C 1002.9 in /  33958.2 hPa SW 7.9 mph /  12.7 km/h 14.5 mph /  23.3 km/h 98 % 0.5 in /  12.7 mm
13:21 7.6 °F /  -13.6 °C 7.3 °F /  -13.7 °C 1002.9 in /  33958.2 hPa WSW 6.4 mph /  10.3 km/h 19.3 mph /  31.1 km/h 98 % 0.5 in /  12.7 mm
13:27 8.1 °F /  -13.3 °C 7.8 °F /  -13.4 °C 1002.6 in /  33948 hPa SW 4.7 mph /  7.6 km/h 16.1 mph /  25.9 km/h 98 % 0.5 in /  12.7 mm
13:33 8.6 °F /  -13 °C 8.3 °F /  -13.2 °C 1002.9 in /  33958.2 hPa West 7.9 mph /  12.7 km/h 16.1 mph /  25.9 km/h 98 % 0.5 in /  12.7 mm
13:39 9.1 °F /  -12.7 °C 8.8 °F /  -12.9 °C 1002.6 in /  33948 hPa WSW 9.7 mph /  15.6 km/h 16.1 mph /  25.9 km/h 98 % 0.5 in /  12.7 mm
13:45 9.4 °F /  -12.6 °C 9.1 °F /  -12.7 °C 1002.6 in /  33948 hPa WNW 9.7 mph /  15.6 km/h 20.9 mph /  33.6 km/h 98 % 0.5 in /  12.7 mm
13:51 9.8 °F /  -12.3 °C 9.5 °F /  -12.5 °C 1002.6 in /  33948 hPa WSW 22.7 mph /  36.5 km/h 24.1 mph /  38.8 km/h 98 % 0.5 in /  12.7 mm
13:57 10.0 °F /  -12.2 °C 9.7 °F /  -12.4 °C 1002.6 in /  33948 hPa WSW 17.7 mph /  28.5 km/h 19.3 mph /  31.1 km/h 98 % 0.3 in /  7.62 mm
14:03 10.2 °F /  -12.1 °C 9.7 °F /  -12.4 °C 1002.6 in /  33948 hPa WSW 13.0 mph /  20.9 km/h 20.9 mph /  33.6 km/h 97 % 0.3 in /  7.62 mm
14:09 10.3 °F /  -12.1 °C 9.7 °F /  -12.4 °C 1002.3 in /  33937.9 hPa WSW 13.0 mph /  20.9 km/h 20.9 mph /  33.6 km/h 96 % 0.3 in /  7.62 mm
14:15 10.5 °F /  -11.9 °C 9.9 °F /  -12.3 °C 1002.3 in /  33937.9 hPa West 13.0 mph /  20.9 km/h 25.7 mph /  41.4 km/h 96 % 0.3 in /  7.62 mm
14:21 10.7 °F /  -11.8 °C 10.1 °F /  -12.2 °C 1002.3 in /  33937.9 hPa West 14.3 mph /  23 km/h 25.7 mph /  41.4 km/h 96 % 0.3 in /  7.62 mm
14:27 10.8 °F /  -11.8 °C 10.0 °F /  -12.2 °C 1002.3 in /  33937.9 hPa WSW 11.1 mph /  17.9 km/h 22.5 mph /  36.2 km/h 95 % 0.3 in /  7.62 mm
14:33 10.9 °F /  -11.7 °C 10.1 °F /  -12.2 °C 1002.3 in /  33937.9 hPa WSW 28.8 mph /  46.3 km/h 32.2 mph /  51.8 km/h 95 % 0.0 in /  0 mm
14:39 11.2 °F /  -11.6 °C 10.4 °F /  -12 °C 1002.3 in /  33937.9 hPa WNW 11.1 mph /  17.9 km/h 33.8 mph /  54.4 km/h 95 % 0.3 in /  7.62 mm
14:45 11.3 °F /  -11.5 °C 10.4 °F /  -12 °C 1002.6 in /  33948 hPa West 17.7 mph /  28.5 km/h 25.7 mph /  41.4 km/h 94 % 0.3 in /  7.62 mm
14:51 11.4 °F /  -11.4 °C 10.6 °F /  -11.9 °C 1002.6 in /  33948 hPa NW 13.0 mph /  20.9 km/h 29.0 mph /  46.7 km/h 95 % 0.3 in /  7.62 mm
14:57 11.7 °F /  -11.3 °C 10.6 °F /  -11.9 °C 1002.6 in /  33948 hPa WSW 9.7 mph /  15.6 km/h 32.2 mph /  51.8 km/h 93 % 0.3 in /  7.62 mm
15:03 11.8 °F /  -11.2 °C 10.7 °F /  -11.8 °C 1002.6 in /  33948 hPa WSW 20.9 mph /  33.6 km/h 25.7 mph /  41.4 km/h 93 % 0.3 in /  7.62 mm
15:09 11.7 °F /  -11.3 °C 10.6 °F /  -11.9 °C 1002.9 in /  33958.2 hPa WSW 17.7 mph /  28.5 km/h 25.7 mph /  41.4 km/h 93 % 0.3 in /  7.62 mm
15:15 11.7 °F /  -11.3 °C 10.8 °F /  -11.8 °C 1002.9 in /  33958.2 hPa West 20.9 mph /  33.6 km/h 32.2 mph /  51.8 km/h 94 % 0.3 in /  7.62 mm
15:21 11.8 °F /  -11.2 °C 10.7 °F /  -11.8 °C 1002.9 in /  33958.2 hPa WSW 32.0 mph /  51.5 km/h 38.6 mph /  62.1 km/h 93 % 0.3 in /  7.62 mm
15:27 12.3 °F /  -10.9 °C 10.5 °F /  -11.9 °C 1002.6 in /  33948 hPa WNW 30.6 mph /  49.2 km/h 41.8 mph /  67.3 km/h 89 % 0.5 in /  12.7 mm
15:33 12.4 °F /  -10.9 °C 10.5 °F /  -11.9 °C 1002.9 in /  33958.2 hPa WNW 30.6 mph /  49.2 km/h 32.2 mph /  51.8 km/h 88 % 0.3 in /  7.62 mm
15:39 12.6 °F /  -10.8 °C 10.7 °F /  -11.8 °C 1002.9 in /  33958.2 hPa West 19.5 mph /  31.4 km/h 33.8 mph /  54.4 km/h 88 % 0.3 in /  7.62 mm
15:45 12.6 °F /  -10.8 °C 10.7 °F /  -11.8 °C 1002.9 in /  33958.2 hPa West 13.0 mph /  20.9 km/h 27.4 mph /  44.1 km/h 88 % 0.3 in /  7.62 mm
15:51 12.2 °F /  -11 °C 10.6 °F /  -11.9 °C 1002.9 in /  33958.2 hPa West 28.8 mph /  46.3 km/h 30.6 mph /  49.2 km/h 90 % 0.3 in /  7.62 mm
15:57 12.3 °F /  -10.9 °C 10.5 °F /  -11.9 °C 1002.9 in /  33958.2 hPa WNW 22.7 mph /  36.5 km/h 40.2 mph /  64.7 km/h 89 % 0.3 in /  7.62 mm
16:03 12.4 °F /  -10.9 °C 10.6 °F /  -11.9 °C 1003.3 in /  33971.7 hPa NW 16.3 mph /  26.2 km/h 35.4 mph /  57 km/h 89 % 0.3 in /  7.62 mm
16:09 12.3 °F /  -10.9 °C 10.7 °F /  -11.8 °C 1003.3 in /  33971.7 hPa West 17.7 mph /  28.5 km/h 30.6 mph /  49.2 km/h 90 % 0.3 in /  7.62 mm
16:15 12.4 °F /  -10.9 °C 10.5 °F /  -11.9 °C 1003.6 in /  33981.9 hPa West 24.1 mph /  38.8 km/h 37.0 mph /  59.5 km/h 88 % 0.3 in /  7.62 mm
16:21 12.4 °F /  -10.9 °C 10.5 °F /  -11.9 °C 1003.6 in /  33981.9 hPa WNW 14.3 mph /  23 km/h 30.6 mph /  49.2 km/h 88 % 0.3 in /  7.62 mm
16:27 12.3 °F /  -10.9 °C 10.5 °F /  -11.9 °C 1003.6 in /  33981.9 hPa West 27.4 mph /  44.1 km/h 37.0 mph /  59.5 km/h 89 % 0.0 in /  0 mm
16:34 12.1 °F /  -11.1 °C 10.5 °F /  -11.9 °C 1003.9 in /  33992.1 hPa WSW 20.9 mph /  33.6 km/h 29.0 mph /  46.7 km/h 90 % 0.0 in /  0 mm
16:40 11.9 °F /  -11.2 °C 10.6 °F /  -11.9 °C 1003.9 in /  33992.1 hPa West 13.0 mph /  20.9 km/h 24.1 mph /  38.8 km/h 92 % 0.0 in /  0 mm
16:46 12.0 °F /  -11.1 °C 10.4 °F /  -12 °C 1003.9 in /  33992.1 hPa WNW 22.7 mph /  36.5 km/h 32.2 mph /  51.8 km/h 90 % 0.0 in /  0 mm
16:52 12.0 °F /  -11.1 °C 10.6 °F /  -11.9 °C 1003.9 in /  33992.1 hPa WSW 14.3 mph /  23 km/h 37.0 mph /  59.5 km/h 91 % 0.0 in /  0 mm
16:58 12.1 °F /  -11.1 °C 10.5 °F /  -11.9 °C 1004.3 in /  34005.6 hPa WNW 20.9 mph /  33.6 km/h 35.4 mph /  57 km/h 90 % 0.0 in /  0 mm
17:04 12.1 °F /  -11.1 °C 10.3 °F /  -12.1 °C 1004.3 in /  34005.6 hPa NW 19.5 mph /  31.4 km/h 32.2 mph /  51.8 km/h 89 % 0.0 in /  0 mm
17:10 12.2 °F /  -11 °C 10.3 °F /  -12.1 °C 1004.3 in /  34005.6 hPa West 17.7 mph /  28.5 km/h 32.2 mph /  51.8 km/h 88 % 0.0 in /  0 mm
17:16 12.3 °F /  -10.9 °C 10.4 °F /  -12 °C 1004.3 in /  34005.6 hPa West 22.7 mph /  36.5 km/h 40.2 mph /  64.7 km/h 88 % 0.0 in /  0 mm
17:22 12.2 °F /  -11 °C 10.3 °F /  -12.1 °C 1004.6 in /  34015.8 hPa West 13.0 mph /  20.9 km/h 29.0 mph /  46.7 km/h 88 % 0.0 in /  0 mm
17:28 12.1 °F /  -11.1 °C 10.3 °F /  -12.1 °C 1004.6 in /  34015.8 hPa WNW 19.5 mph /  31.4 km/h 24.1 mph /  38.8 km/h 89 % 0.0 in /  0 mm
17:34 11.8 °F /  -11.2 °C 10.4 °F /  -12 °C 1004.6 in /  34015.8 hPa WNW 11.1 mph /  17.9 km/h 30.6 mph /  49.2 km/h 91 % 0.0 in /  0 mm
17:40 11.6 °F /  -11.3 °C 10.3 °F /  -12.1 °C 1004.6 in /  34015.8 hPa WNW 25.9 mph /  41.7 km/h 27.4 mph /  44.1 km/h 92 % 0.3 in /  7.62 mm
17:46 11.7 °F /  -11.3 °C 10.3 °F /  -12.1 °C 1005.0 in /  34029.3 hPa West 16.3 mph /  26.2 km/h 41.8 mph /  67.3 km/h 91 % 0.3 in /  7.62 mm
17:52 11.9 °F /  -11.2 °C 10.1 °F /  -12.2 °C 1005.0 in /  34029.3 hPa West 22.7 mph /  36.5 km/h 30.6 mph /  49.2 km/h 89 % 0.3 in /  7.62 mm
17:58 11.8 °F /  -11.2 °C 10.2 °F /  -12.1 °C 1005.0 in /  34029.3 hPa West 20.9 mph /  33.6 km/h 20.9 mph /  33.6 km/h 90 % 0.3 in /  7.62 mm
18:04 11.7 °F /  -11.3 °C 10.3 °F /  -12.1 °C 1005.0 in /  34029.3 hPa WSW 20.9 mph /  33.6 km/h 20.9 mph /  33.6 km/h 91 % 0.3 in /  7.62 mm
18:10 11.8 °F /  -11.2 °C 10.2 °F /  -12.1 °C 1005.0 in /  34029.3 hPa West 20.9 mph /  33.6 km/h 43.4 mph /  69.8 km/h 90 % 0.3 in /  7.62 mm
18:16 11.8 °F /  -11.2 °C 10.2 °F /  -12.1 °C 1005.0 in /  34029.3 hPa WNW 19.5 mph /  31.4 km/h 33.8 mph /  54.4 km/h 90 % 0.3 in /  7.62 mm
18:22 11.9 °F /  -11.2 °C 10.1 °F /  -12.2 °C 1005.0 in /  34029.3 hPa West 11.1 mph /  17.9 km/h 33.8 mph /  54.4 km/h 89 % 0.3 in /  7.62 mm
18:28 11.8 °F /  -11.2 °C 10.2 °F /  -12.1 °C 1005.3 in /  34039.5 hPa WSW 4.7 mph /  7.6 km/h 29.0 mph /  46.7 km/h 90 % 0.3 in /  7.62 mm
18:34 11.7 °F /  -11.3 °C 10.4 °F /  -12 °C 1005.3 in /  34039.5 hPa West 17.7 mph /  28.5 km/h 25.7 mph /  41.4 km/h 92 % 0.3 in /  7.62 mm
18:40 11.7 °F /  -11.3 °C 10.4 °F /  -12 °C 1005.0 in /  34029.3 hPa West 11.1 mph /  17.9 km/h 33.8 mph /  54.4 km/h 92 % 0.0 in /  0 mm
18:46 11.7 °F /  -11.3 °C 10.4 °F /  -12 °C 1005.0 in /  34029.3 hPa WSW 16.3 mph /  26.2 km/h 22.5 mph /  36.2 km/h 92 % 0.3 in /  7.62 mm
18:52 11.7 °F /  -11.3 °C 10.4 °F /  -12 °C 1005.3 in /  34039.5 hPa WSW 13.0 mph /  20.9 km/h 27.4 mph /  44.1 km/h 92 % 0.3 in /  7.62 mm
18:58 11.5 °F /  -11.4 °C 10.4 °F /  -12 °C 1005.3 in /  34039.5 hPa WSW 11.1 mph /  17.9 km/h 24.1 mph /  38.8 km/h 93 % 0.3 in /  7.62 mm
19:04 11.4 °F /  -11.4 °C 10.3 °F /  -12.1 °C 1005.3 in /  34039.5 hPa West 13.0 mph /  20.9 km/h 24.1 mph /  38.8 km/h 93 % 0.3 in /  7.62 mm
19:10 11.6 °F /  -11.3 °C 10.5 °F /  -11.9 °C 1005.0 in /  34029.3 hPa West 19.5 mph /  31.4 km/h 27.4 mph /  44.1 km/h 93 % 0.3 in /  7.62 mm
19:16 11.6 °F /  -11.3 °C 10.5 °F /  -11.9 °C 1005.3 in /  34039.5 hPa WNW 13.0 mph /  20.9 km/h 17.7 mph /  28.5 km/h 93 % 0.3 in /  7.62 mm
19:22 11.4 °F /  -11.4 °C 10.3 °F /  -12.1 °C 1005.0 in /  34029.3 hPa WSW 13.0 mph /  20.9 km/h 19.3 mph /  31.1 km/h 93 % 0.5 in /  12.7 mm
19:28 11.4 °F /  -11.4 °C 10.5 °F /  -11.9 °C 1005.3 in /  34039.5 hPa WSW 16.3 mph /  26.2 km/h 19.3 mph /  31.1 km/h 94 % 0.5 in /  12.7 mm
19:34 11.3 °F /  -11.5 °C 10.4 °F /  -12 °C 1005.3 in /  34039.5 hPa WSW 17.7 mph /  28.5 km/h 19.3 mph /  31.1 km/h 94 % 1.0 in /  25.4 mm
19:40 11.3 °F /  -11.5 °C 10.5 °F /  -11.9 °C 1005.0 in /  34029.3 hPa West 11.1 mph /  17.9 km/h 27.4 mph /  44.1 km/h 95 % 1.3 in /  33.02 mm
19:46 11.3 °F /  -11.5 °C 10.5 °F /  -11.9 °C 1005.3 in /  34039.5 hPa West 16.3 mph /  26.2 km/h 22.5 mph /  36.2 km/h 95 % 1.3 in /  33.02 mm
19:52 11.3 °F /  -11.5 °C 10.5 °F /  -11.9 °C 1005.3 in /  34039.5 hPa West 14.3 mph /  23 km/h 20.9 mph /  33.6 km/h 95 % 1.3 in /  33.02 mm
19:58 11.4 °F /  -11.4 °C 10.6 °F /  -11.9 °C 1005.3 in /  34039.5 hPa West 19.5 mph /  31.4 km/h 20.9 mph /  33.6 km/h 95 % 1.5 in /  38.1 mm
20:04 11.3 °F /  -11.5 °C 10.5 °F /  -11.9 °C 1005.3 in /  34039.5 hPa West 19.5 mph /  31.4 km/h 30.6 mph /  49.2 km/h 95 % 1.5 in /  38.1 mm
20:10 11.3 °F /  -11.5 °C 10.5 °F /  -11.9 °C 1005.3 in /  34039.5 hPa West 16.3 mph /  26.2 km/h 24.1 mph /  38.8 km/h 95 % 1.5 in /  38.1 mm
20:16 11.3 °F /  -11.5 °C 10.5 °F /  -11.9 °C 1005.3 in /  34039.5 hPa West 16.3 mph /  26.2 km/h 25.7 mph /  41.4 km/h 95 % 1.8 in /  45.72 mm
20:22 11.4 °F /  -11.4 °C 10.6 °F /  -11.9 °C 1005.3 in /  34039.5 hPa West 16.3 mph /  26.2 km/h 38.6 mph /  62.1 km/h 95 % 1.5 in /  38.1 mm
20:28 11.4 °F /  -11.4 °C 10.5 °F /  -11.9 °C 1005.3 in /  34039.5 hPa West 16.3 mph /  26.2 km/h 29.0 mph /  46.7 km/h 94 % 1.5 in /  38.1 mm
20:34 11.7 °F /  -11.3 °C 10.6 °F /  -11.9 °C 1005.3 in /  34039.5 hPa WNW 16.3 mph /  26.2 km/h 37.0 mph /  59.5 km/h 93 % 1.0 in /  25.4 mm
20:40 11.7 °F /  -11.3 °C 10.6 °F /  -11.9 °C 1005.3 in /  34039.5 hPa West 14.3 mph /  23 km/h 30.6 mph /  49.2 km/h 93 % 1.0 in /  25.4 mm
20:46 11.7 °F /  -11.3 °C 10.6 °F /  -11.9 °C 1005.3 in /  34039.5 hPa WSW 22.7 mph /  36.5 km/h 38.6 mph /  62.1 km/h 93 % 1.0 in /  25.4 mm
20:52 11.7 °F /  -11.3 °C 10.4 °F /  -12 °C 1005.6 in /  34049.6 hPa NW 13.0 mph /  20.9 km/h 22.5 mph /  36.2 km/h 92 % 1.0 in /  25.4 mm
20:58 11.8 °F /  -11.2 °C 10.5 °F /  -11.9 °C 1005.6 in /  34049.6 hPa WSW 20.9 mph /  33.6 km/h 30.6 mph /  49.2 km/h 92 % 0.8 in /  20.32 mm
21:04 11.9 °F /  -11.2 °C 10.5 °F /  -11.9 °C 1005.6 in /  34049.6 hPa WNW 28.8 mph /  46.3 km/h 40.2 mph /  64.7 km/h 91 % 0.8 in /  20.32 mm
21:10 12.0 °F /  -11.1 °C 10.2 °F /  -12.1 °C 1006.0 in /  34063.2 hPa WNW 28.8 mph /  46.3 km/h 49.9 mph /  80.3 km/h 89 % 0.5 in /  12.7 mm
21:16 11.8 °F /  -11.2 °C 10.2 °F /  -12.1 °C 1006.0 in /  34063.2 hPa West 33.8 mph /  54.4 km/h 46.7 mph /  75.2 km/h 90 % 0.8 in /  20.32 mm
21:22 11.6 °F /  -11.3 °C 10.2 °F /  -12.1 °C 1006.3 in /  34073.3 hPa NNW 16.3 mph /  26.2 km/h 30.6 mph /  49.2 km/h 91 % 0.8 in /  20.32 mm
21:28 11.5 °F /  -11.4 °C 9.6 °F /  -12.4 °C 1006.3 in /  34073.3 hPa WNW 24.1 mph /  38.8 km/h 56.3 mph /  90.6 km/h 88 % 1.3 in /  33.02 mm
21:34 11.8 °F /  -11.2 °C 9.2 °F /  -12.7 °C 1006.3 in /  34073.3 hPa WNW 27.4 mph /  44.1 km/h 43.4 mph /  69.8 km/h 84 % 1.5 in /  38.1 mm
21:40 11.7 °F /  -11.3 °C 9.1 °F /  -12.7 °C 1006.3 in /  34073.3 hPa WNW 14.3 mph /  23 km/h 38.6 mph /  62.1 km/h 84 % 1.3 in /  33.02 mm
21:46 11.6 °F /  -11.3 °C 9.0 °F /  -12.8 °C 1006.7 in /  34086.9 hPa WNW 28.8 mph /  46.3 km/h 43.4 mph /  69.8 km/h 84 % 1.0 in /  25.4 mm
21:52 11.5 °F /  -11.4 °C 8.7 °F /  -12.9 °C 1006.7 in /  34086.9 hPa West 28.8 mph /  46.3 km/h 38.6 mph /  62.1 km/h 83 % 1.0 in /  25.4 mm
21:58 11.3 °F /  -11.5 °C 8.7 °F /  -12.9 °C 1006.7 in /  34086.9 hPa WNW 20.9 mph /  33.6 km/h 24.1 mph /  38.8 km/h 84 % 1.0 in /  25.4 mm
22:04 11.3 °F /  -11.5 °C 8.7 °F /  -12.9 °C 1006.7 in /  34086.9 hPa West 16.3 mph /  26.2 km/h 37.0 mph /  59.5 km/h 84 % 1.0 in /  25.4 mm
22:10 11.2 °F /  -11.6 °C 8.8 °F /  -12.9 °C 1006.7 in /  34086.9 hPa West 20.9 mph /  33.6 km/h 25.7 mph /  41.4 km/h 85 % 1.0 in /  25.4 mm
22:16 11.2 °F /  -11.6 °C 8.8 °F /  -12.9 °C 1007.0 in /  34097 hPa West 14.3 mph /  23 km/h 33.8 mph /  54.4 km/h 85 % 0.5 in /  12.7 mm
22:22 11.2 °F /  -11.6 °C 8.8 °F /  -12.9 °C 1007.0 in /  34097 hPa West 11.1 mph /  17.9 km/h 30.6 mph /  49.2 km/h 85 % 0.5 in /  12.7 mm
22:28 11.1 °F /  -11.6 °C 9.0 °F /  -12.8 °C 1007.0 in /  34097 hPa West 27.4 mph /  44.1 km/h 35.4 mph /  57 km/h 87 % 0.3 in /  7.62 mm
22:34 10.8 °F /  -11.8 °C 9.2 °F /  -12.7 °C 1007.3 in /  34107.2 hPa WSW 13.0 mph /  20.9 km/h 22.5 mph /  36.2 km/h 90 % 0.0 in /  0 mm
22:40 10.8 °F /  -11.8 °C 9.1 °F /  -12.7 °C 1007.3 in /  34107.2 hPa West 9.7 mph /  15.6 km/h 27.4 mph /  44.1 km/h 89 % 0.0 in /  0 mm
22:46 10.9 °F /  -11.7 °C 9.0 °F /  -12.8 °C 1007.3 in /  34107.2 hPa West 22.7 mph /  36.5 km/h 27.4 mph /  44.1 km/h 88 % 0.0 in /  0 mm
22:52 11.0 °F /  -11.7 °C 8.9 °F /  -12.8 °C 1007.3 in /  34107.2 hPa WNW 11.1 mph /  17.9 km/h 37.0 mph /  59.5 km/h 87 % 0.0 in /  0 mm
22:58 11.1 °F /  -11.6 °C 9.0 °F /  -12.8 °C 1007.3 in /  34107.2 hPa West 20.9 mph /  33.6 km/h 27.4 mph /  44.1 km/h 87 % 0.0 in /  0 mm
23:04 11.2 °F /  -11.6 °C 8.9 °F /  -12.8 °C 1007.3 in /  34107.2 hPa NW 27.4 mph /  44.1 km/h 37.0 mph /  59.5 km/h 86 % 0.0 in /  0 mm
23:10 11.2 °F /  -11.6 °C 8.6 °F /  -13 °C 1007.3 in /  34107.2 hPa WSW 20.9 mph /  33.6 km/h 41.8 mph /  67.3 km/h 84 % 0.0 in /  0 mm
23:16 11.2 °F /  -11.6 °C 8.6 °F /  -13 °C 1007.3 in /  34107.2 hPa WNW 24.1 mph /  38.8 km/h 48.3 mph /  77.7 km/h 84 % 0.0 in /  0 mm
23:22 11.0 °F /  -11.7 °C 8.4 °F /  -13.1 °C 1008.0 in /  34130.9 hPa West 40.4 mph /  65 km/h 41.8 mph /  67.3 km/h 84 % 0.0 in /  0 mm
23:28 10.9 °F /  -11.7 °C 8.1 °F /  -13.3 °C 1008.0 in /  34130.9 hPa WNW 33.8 mph /  54.4 km/h 53.1 mph /  85.5 km/h 83 % 0.0 in /  0 mm
23:34 10.7 °F /  -11.8 °C 8.1 °F /  -13.3 °C 1008.4 in /  34144.4 hPa NW 25.9 mph /  41.7 km/h 35.4 mph /  57 km/h 84 % 0.0 in /  0 mm
23:40 10.6 °F /  -11.9 °C 8.0 °F /  -13.3 °C 1008.7 in /  34154.6 hPa WNW 22.7 mph /  36.5 km/h 56.3 mph /  90.6 km/h 84 % 0.0 in /  0 mm
23:46 10.4 °F /  -12 °C 7.8 °F /  -13.4 °C 1009.0 in /  34164.7 hPa WNW 13.0 mph /  20.9 km/h 32.2 mph /  51.8 km/h 84 % 0.0 in /  0 mm
23:52 10.3 °F /  -12.1 °C 7.5 °F /  -13.6 °C 1009.0 in /  34164.7 hPa West 22.7 mph /  36.5 km/h 40.2 mph /  64.7 km/h 83 % 0.0 in /  0 mm
23:58 10.2 °F /  -12.1 °C 7.6 °F /  -13.6 °C 1009.0 in /  34164.7 hPa WNW 11.1 mph /  17.9 km/h 30.6 mph /  49.2 km/h 84 % 0.0 in /  0 mm
Meteo18
Compliments of Weather Underground - 4 mb

Script developed by  Jim McMurry - jmcmurry@mwt.net Adapted for the template by  Wim van der Kuil - Leuven-Template.eu

You find our weather info also at:

European Weather Network

Weather Underground

Equipment we use:

Weather-station
Davis Vue

Weather-program
Meteobridge

Weather-server
Raspberry PI 2 B+

Provider
1 and 1

Davis Vue

Meteobridge

Raspberry PI 2 B+

1 and 1